Super Devoluy (05) - H

Date : 30/08/2014
Distance : 4,600 km

Place Nom Licence Catégorie Club Temps min/km CN à J-60 Points Différence Nouveau CN
1 VENON Gérard 2738 H70 2105BO 0:40:29 8'48 4395 4939 +544 4905
2 SINIBALDI Marc 1347 H70 3801RA 0:45:53 9'58 4241 4358 +117 4329
3 BONNET Christine 2400 D60 5402LO 0:48:21 10'30 4362 4135 -227 4447
4 ABISSE Jacques 703 H70 2508FC 0:48:32 10'33 3897 4120 +223 4089
5 VAGNER Christine 3651 D60 5702LO 0:49:09 10'41 4838 4068 -770 4734
6 EVEN Gabriel 2789 H70 2206BR 0:50:25 10'57 2920 3966 +1046 4145
7 STONE Frances 22947 D65 0621AZ 0:51:43 11'14 3119 3866 +747 3236
8 DUBROCA Monique 633 D65 3308AQ 0:51:52 11'16 4418 3855 -563 4287
9 SIMONET Jean 930 H70 7707IF 0:52:29 11'24 4368 3810 -558 4400
10 LARMINACH Andre 646 H70 3308AQ 0:52:33 11'25 4230 3805 -425 4070
11 PERMINGEAT Helene 21054 D60 2606RA 0:53:06 11'32 2988 3765 +777 3423
12 ANNE Brigitte 1672 D60 0111RA 0:54:12 11'46 3983 3689 -294 3975
13 HELIOT Claude 2349 H70 6906RA 0:54:22 11'49 3107 3678 +571 3211
14 EGGLI Margrit 27392 D65 6803AL 0:54:24 11'49 3590 3675 +85 3612
15 EUZEN J-Paul 16403 H70 6911RA 0:54:43 11'53 3533 3654 +121 3512
16 BEGU Aurore 9042 D40 7722IF 0:55:21 12'01 3081 3612 +531 3205
17 MORISSEAU Claire 28851 D45 0207PI 0:55:26 12'03 2712 3607 +895 3071
18 DEVILLE Nelly 2401 D65 5402LO 0:55:27 12'03 4369 3606 -763 4318
19 ALLIES Anne 23146 D60 4802LR 0:55:45 12'07 0 3586 3134
20 GROSJEAN Pierre 12354 H75 6913RA 0:55:46 12'07 3157 3585 +428 3247
21 VILLEDIEU Martine 13752 D60 4201RA 0:57:11 12'25 3709 3497 -212 3725
22 ROBERT Martine 1087 D65 7004FC 0:57:44 12'33 3475 3463 -12 3607
23 BENACEK Vaclav 2368 H70 6806AL 0:57:51 12'34 3656 3456 -200 3736
24 DIEUDONNE Madeleine 1380 D65 7808IF 0:58:04 12'37 3686 3443 -243 3635
25 RICHARD Nicole 14245 D65 0207PI 0:58:09 12'38 3267 3438 +171 3274
26 CHAILLARD Marketa 1928 D45 7305RA 0:58:19 12'40 3596 3429 -167 3410
27 GERBAUT J-Pierre 962 H70 4012AQ 0:58:27 12'42 3747 3421 -326 3941
28 KENANE Abdelkader 1448 H75 5501LO 0:58:37 12'44 3869 3411 -458 3848
29 CONIEL Anne 14884 D45 5604BR 0:59:01 12'49 3874 3388 -486 3640
30 MERIGUET Valerie 16687 D45 7807IF 0:59:08 12'51 3149 3381 +232 3232
31 MANGUERO Denise 2354 D60 2604RA 0:59:15 12'52 1931 3375 +1444 2746
32 COUPEY Guy 5118 H70 2704NM 0:59:28 12'55 2636 3362 +726 3145
33 BAUDRY J-Claude 1693 H70 1705PC 0:59:29 12'55 3491 3361 -130 3549
34 GUIGUET Michel 455 H70 1303PR 1:00:15 13'05 3934 3319 -615 3798
35 BRUNEL Marie-Jo 8761 D60 8903BO 1:00:55 13'14 3631 3282 -349 3446
36 FINO Béatrice 1674 D45 0111RA 1:01:07 13'17 2648 3271 +623 2792
37 ANTOINE Regis 1276 H75 7108BO 1:01:07 13'17 3544 3271 -273 3658
38 RAUTURIER Nathalie 3200 D45 7807IF 1:02:13 13'31 3895 3214 -681 3937
39 BLASCO Nicole 395 D65 2406AQ 1:02:24 13'33 3768 3204 -564 3575
40 ELIAS Jean-claude 24745 H70 1307PR 1:02:59 13'41 3588 3175 -413 3578
41 JEANPIERRE M-Therese 3302 D70 8809LO 1:03:13 13'44 2966 3163 +197 2908
42 DOMENICI J-Claude 1052 H75 1705PC 1:03:20 13'46 3719 3157 -562 3520
43 BOUSSER Marie-Rose 1844 D60 5702LO 1:04:04 13'55 3408 3121 -287 3391
44 PUECH Francoise 1174 D60 8311AZ 1:04:15 13'58 0 3112 3054
45 COUPAT Catherine 145 D65 2606RA 1:04:15 13'58 2802 3112 +310 2780
46 BLASCO Serge 396 H70 2406AQ 1:04:23 13'59 3487 3105 -382 3584
47 BROUILLET Frédérique 19875 D45 1705PC 1:04:30 14'01 2394 3100 +706 2687
48 CHAUVINEAU Christine 15228 D45 7807IF 1:05:02 14'08 3042 3074 +32 2946
49 ENARD Monique 2664 D60 2101BO 1:06:06 14'22 3596 3025 -571 3478
50 VOGT Christiane 2557 D65 6709AL 1:07:18 14'37 3225 2971 -254 3088
51 FRANTZ Francoise 6886 D65 2904BR 1:07:19 14'38 3065 2970 -95 3103
52 GANDON J-Claude 249 H70 6906RA 1:08:19 14'51 3508 2927 -581 3785
53 ANFOSSI Giuseppe 14235 H80 0615AZ 1:08:35 14'54 3002 2915 -87 2856
54 ASSANTE Gerard 19382 H70 1303PR 1:08:53 14'58 3336 2903 -433 3345
55 VALETTE Isabelle 2270 D45 6913RA 1:08:59 14'59 3237 2898 -339 3198
56 INDEAUX Catherine 10394 D40 6913RA 1:09:42 15'09 2366 2869 +503 2152
57 BASTIN-HALMES Hildegard 24210 D60 2508FC 1:10:25 15'18 3990 2839 -1151 3437
58 CUSTER Evan 28276 H70 0615AZ 1:11:04 15'26 1940 2813 +873 3043
59 JAULIN Lydie 26223 D45 1705PC 1:12:01 15'39 3104 2776 -328 3097
60 GEOFFROY Nicole 6443 D65 3408LR 1:12:13 15'41 2797 2769 -28 2597
61 GINTZBURGER Véronique 25055 D45 7407RA 1:12:56 15'51 3045 2741 -304 3057
62 KPOKOU Christiane 3665 D60 3809RA 1:13:40 16'00 0 2714 2184
63 BEAUVISAGE Fabienne 13740 D50 7807IF 1:14:35 16'12 2748 2681 -67 2894
64 POUPIER Claudine 13991 D65 7203PL 1:14:43 16'14 2487 2676 +189 2555
65 MAYORAZ Béatriz 25036 D50 7407RA 1:15:11 16'20 2659 2749
66 LECOYER Annick 2885 D60 0207PI 1:15:15 16'21 2946 2657 -289 2974
67 MOULIERE M-Bernadette 2888 D70 0207PI 1:15:45 16'28 3233 2639 -594 3176
68 GERBEAUX Marie-jeanne 22417 D60 6205NO 1:16:51 16'42 3202 2602 -600 3172
69 RIFFARD M-Lucie 2446 D70 5702LO 1:17:37 16'52 2526 2576 +50 2609
70 RIFFARD J-Claude 2445 H70 5702LO 1:19:40 17'19 2976 2510 -466 3061
71 LEMERCIER Jocelyne 2474 D60 5407LO 1:20:20 17'27 2689 2489 -200 2564
72 NATALI Annie 1106 D65 8105MP 1:20:31 17'30 2668 2483 -185 2753
73 THIEBAULT Monique 5033 D65 3318AQ 1:21:33 17'43 3218 2452 -766 2979
74 RUAUD Agnes 739 D60 2508FC 1:22:04 17'50 1857 2436 +579 2119
75 OUDIN M-Reine 7574 D65 6804AL 1:22:10 17'51 3379 2433 -946 3278
76 RIAULT Bernard 2555 H70 6804AL 1:22:50 18'00 3296 2414 -882 3268
77 PARAZOLS M-Annick 4845 D60 2606RA 1:22:57 18'01 2410 2265
78 MONTANARI Colette 2533 D65 5703LO 1:23:06 18'03 3056 2406 -650 2959
79 FORGET Sandrine 18745 D40 4708AQ 1:24:04 18'16 2858 2378 -480 2846
80 CABON Monique 96 D60 2904BR 1:24:16 18'19 2729 2373 -356 2687
81 SIMONET Marie 931 D65 7707IF 1:27:11 18'57 3149 2293 -856 3023
82 BASTIEN-FATH Nicole 8954 D65 5402LO 1:27:23 18'59 2027 2288 +261 2130
83 ILLES Dominique 3515 D60 4802LR 1:28:48 19'18 0 2252 2162
84 DODIN Genevieve 4392 D65 8809LO 1:30:33 19'41 2125 2208 +83 2142
85 ULMER Claudine 11497 D65 1303PR 1:31:35 19'54 2417 2183 -234 2330
86 LEGUEN Joseph 8138 H70 2208BR 1:31:45 19'56 2806 2179 -627 3438
87 RIMETZ Marcelline 22235 D60 6208NO 1:32:18 20'03 2037 2166 +129 2006
88 DECHAVANNE Denise 3462 D60 6911RA 1:32:55 20'11 1965 2152 +187 2220
89 GUET Martine 11810 D60 6906RA 1:34:45 20'35 2811 2110 -701 2771
90 BOULESTREAU Francoise 11308 D50 2904BR 1:41:59 22'10 2621 1961 -660 2498
91 THIEBAULT M-Paule 4490 D60 6804AL 1:46:45 23'12 2027 1873 -154 1782
92 CHAVERNAC Bruno 1416 H80 0615AZ 1:55:03 25'00 1419 1738 +319 1572
93 THIEVENAZ Francoise 19672 D60 3811RA 1:57:10 25'28 0 1706 1634
94 GROSJEAN A-Marie 12059 D75 6913RA 2:00:18 26'09 2556 1662 -894 2238
95 BAUDOIN Annie 16634 D65 0615AZ 2:00:33 26'12 1709 1659 -50 1581
96 POGU Paulette 4671 D60 5402LO 2:03:12 26'46 2879 1623 -1256 2995
97 ALLANCON Claudine 14632 D65 2906BR 2:06:58 27'36 1778 1575 -203 1796
98 BOUILLET Geneviève 8944 D60 3811RA 2:28:37 32'18 2415 1345 -1070 2415
99 LAUNEY Noella 11368 D75 7203PL 2:35:50 33'52 2017 1283 -734 2017
100 LUDEWIG-JAMES Carol 15894 D75 5907NO 2:48:26 36'36 1751 1187 -564 1751
FEHLEN Jacqueline 20808 D70 5407LO pm None 0 0 0
ASTRADE Blandine 15411 D45 7305RA pm None 1945 0 1945
KIEFFER Mireille 2680 D65 2101BO pm None 2433 0 2322
ABISSE Gisele 701 D70 2508FC pm None 3116 0 2845
MONTANARI Rachel 2534 D40 5703LO pm None 1845 0 1845
LAZAROWICZ Rose-Marie 3598 D65 7512IF pm None 1703 0 1483